createdAt,value
2023-02-24T00:01:24.831Z,9.58
2023-02-24T00:04:00.248Z,9.60
2023-02-24T00:06:36.832Z,9.56
2023-02-24T00:09:13.943Z,9.51
2023-02-24T00:11:57.247Z,9.47
2023-02-24T00:14:36.016Z,9.47
2023-02-24T00:17:09.359Z,9.37
2023-02-24T00:19:41.732Z,9.46
2023-02-24T00:22:13.720Z,9.47
2023-02-24T00:24:46.412Z,9.33
2023-02-24T00:27:18.352Z,9.46
2023-02-24T00:29:50.312Z,9.43
2023-02-24T00:32:22.394Z,9.40
2023-02-24T00:34:55.269Z,9.36
2023-02-24T00:37:27.197Z,9.32
2023-02-24T00:39:59.104Z,9.26
2023-02-24T00:42:31.027Z,9.22
2023-02-24T00:45:08.027Z,9.21
2023-02-24T00:47:40.175Z,9.18
2023-02-24T00:50:14.212Z,9.16
2023-02-24T00:52:46.290Z,9.15
2023-02-24T00:55:19.252Z,9.18
2023-02-24T00:57:51.227Z,9.17
2023-02-24T01:00:23.645Z,9.20
2023-02-24T01:02:59.414Z,9.13
2023-02-24T01:05:31.617Z,9.13
2023-02-24T01:08:03.576Z,9.13
2023-02-24T01:10:35.621Z,9.05
2023-02-24T01:13:07.529Z,9.01
2023-02-24T01:15:39.537Z,9.06
2023-02-24T01:18:11.520Z,9.09
2023-02-24T01:20:43.466Z,9.17
2023-02-24T01:23:15.352Z,9.18
2023-02-24T01:25:47.847Z,9.24
2023-02-24T01:28:19.898Z,9.29
2023-02-24T01:30:52.207Z,9.34
2023-02-24T01:33:24.228Z,9.37
2023-02-24T01:35:56.892Z,9.37
2023-02-24T01:38:28.908Z,9.41
2023-02-24T01:41:00.798Z,9.43
2023-02-24T01:43:34.326Z,9.42
2023-02-24T01:46:06.483Z,9.43
2023-02-24T01:48:38.603Z,9.44
2023-02-24T01:51:12.371Z,9.41
2023-02-24T01:53:45.368Z,9.44
2023-02-24T01:56:17.546Z,9.44
2023-02-24T01:58:50.057Z,9.43
2023-02-24T02:01:22.661Z,9.34
2023-02-24T02:04:06.012Z,9.41
2023-02-24T02:06:39.801Z,9.39
2023-02-24T02:09:15.380Z,9.39
2023-02-24T02:11:49.242Z,9.39
2023-02-24T02:14:27.011Z,9.36
2023-02-24T02:17:32.730Z,9.31
2023-02-24T02:20:55.796Z,9.21
2023-02-24T02:24:20.342Z,9.15
2023-02-24T02:27:22.867Z,9.13
2023-02-24T02:30:20.968Z,9.02
2023-02-24T02:33:14.962Z,9.12
2023-02-24T02:36:17.962Z,9.19
2023-02-24T02:39:03.668Z,9.16
2023-02-24T02:41:42.394Z,9.23
2023-02-24T02:44:32.298Z,9.24
2023-02-24T02:47:30.227Z,9.20
2023-02-24T02:50:18.442Z,9.22
2023-02-24T02:53:14.567Z,9.22
2023-02-24T02:56:03.377Z,9.19
2023-02-24T02:58:42.128Z,9.16
2023-02-24T03:01:21.019Z,9.10
2023-02-24T03:03:59.110Z,9.14
2023-02-24T03:06:59.154Z,9.06
2023-02-24T03:09:39.915Z,9.04
2023-02-24T03:12:18.974Z,9.04
2023-02-24T03:15:00.246Z,9.03
2023-02-24T03:17:40.931Z,8.92
2023-02-24T03:20:23.486Z,8.90
2023-02-24T03:23:09.449Z,8.91
2023-02-24T03:25:54.872Z,8.86
2023-02-24T03:28:39.777Z,8.85
2023-02-24T03:31:27.794Z,8.76
2023-02-24T03:34:24.040Z,8.80
2023-02-24T03:36:57.553Z,8.81
2023-02-24T03:39:29.640Z,8.84
2023-02-24T03:42:08.973Z,8.79
2023-02-24T03:44:40.976Z,8.72
2023-02-24T03:47:16.480Z,8.84
2023-02-24T03:49:48.483Z,8.83
2023-02-24T03:52:32.517Z,8.80
2023-02-24T03:55:58.894Z,8.64
2023-02-24T03:58:43.142Z,8.64
2023-02-24T04:01:31.859Z,8.64
2023-02-24T04:04:29.738Z,8.59
2023-02-24T04:07:19.224Z,8.62
2023-02-24T04:10:10.967Z,8.62
2023-02-24T04:13:28.383Z,8.62
2023-02-24T04:16:11.501Z,8.64
2023-02-24T04:18:50.140Z,8.68
2023-02-24T04:21:23.319Z,8.70
2023-02-24T04:23:57.812Z,8.65
2023-02-24T04:26:30.370Z,8.72
2023-02-24T04:29:03.282Z,8.75
2023-02-24T04:31:39.074Z,8.67
2023-02-24T04:34:11.170Z,8.75
2023-02-24T04:36:49.495Z,8.74
2023-02-24T04:39:23.472Z,8.78
2023-02-24T04:41:57.761Z,8.63
2023-02-24T04:44:29.729Z,8.73
2023-02-24T04:47:01.765Z,8.69
2023-02-24T04:49:34.053Z,8.69
2023-02-24T04:52:06.277Z,8.63
2023-02-24T04:54:38.353Z,8.66
2023-02-24T04:57:10.639Z,8.62
2023-02-24T04:59:42.628Z,8.54
2023-02-24T05:02:18.924Z,8.52
2023-02-24T05:04:52.458Z,8.53
2023-02-24T05:07:25.277Z,8.50
2023-02-24T05:09:58.404Z,8.41
2023-02-24T05:12:32.485Z,8.34
2023-02-24T05:15:06.361Z,8.28
2023-02-24T05:17:39.824Z,8.28
2023-02-24T05:20:31.379Z,8.29
2023-02-24T05:23:03.584Z,8.27
2023-02-24T05:25:37.738Z,8.26
2023-02-24T05:28:10.005Z,8.30
2023-02-24T05:30:42.006Z,8.30
2023-02-24T05:33:13.900Z,8.23
2023-02-24T05:35:45.821Z,8.20
2023-02-24T05:38:19.766Z,8.20
2023-02-24T05:40:57.560Z,8.18
2023-02-24T05:43:31.306Z,8.21
2023-02-24T05:46:04.481Z,8.22
2023-02-24T05:48:36.392Z,8.14
2023-02-24T05:51:11.934Z,8.11
2023-02-24T05:53:43.861Z,7.97
2023-02-24T05:56:17.804Z,8.03
2023-02-24T05:59:01.789Z,7.96
2023-02-24T06:01:38.095Z,7.97
2023-02-24T06:04:10.227Z,7.95
2023-02-24T06:06:42.766Z,7.88
2023-02-24T06:09:14.880Z,7.85
2023-02-24T06:11:47.514Z,7.79
2023-02-24T06:14:21.465Z,7.75
2023-02-24T06:16:53.418Z,7.73
2023-02-24T06:19:25.518Z,7.68
2023-02-24T06:22:01.766Z,7.70
2023-02-24T06:24:33.692Z,7.90
2023-02-24T06:27:17.590Z,7.75
2023-02-24T06:29:52.425Z,7.69
2023-02-24T06:32:26.543Z,7.67
2023-02-24T06:34:59.368Z,7.63
2023-02-24T06:37:31.364Z,7.61
2023-02-24T06:40:09.382Z,7.53
2023-02-24T06:42:55.387Z,7.54
2023-02-24T06:45:27.522Z,7.57
2023-02-24T06:47:59.402Z,7.58
2023-02-24T06:50:32.858Z,7.50
2023-02-24T06:53:09.068Z,7.54
2023-02-24T06:55:41.108Z,7.52
2023-02-24T06:58:20.415Z,7.51
2023-02-24T07:00:56.874Z,7.51
2023-02-24T07:03:47.167Z,7.43
2023-02-24T07:06:23.938Z,7.52
2023-02-24T07:08:58.727Z,7.50
2023-02-24T07:11:31.623Z,7.48
2023-02-24T07:14:07.862Z,7.50
2023-02-24T07:16:45.271Z,7.47
2023-02-24T07:19:17.292Z,7.46
2023-02-24T07:21:59.908Z,7.43
2023-02-24T07:24:36.744Z,7.50
2023-02-24T07:27:21.985Z,7.48
2023-02-24T07:29:54.112Z,7.51
2023-02-24T07:32:26.119Z,7.48
2023-02-24T07:34:59.522Z,7.49
2023-02-24T07:37:31.766Z,7.47
2023-02-24T07:40:08.031Z,7.48
2023-02-24T07:42:39.977Z,7.48
2023-02-24T07:45:13.118Z,7.49
2023-02-24T07:47:45.628Z,7.49
2023-02-24T07:50:18.639Z,7.27
2023-02-24T07:52:51.820Z,7.49
2023-02-24T07:55:25.852Z,7.50
2023-02-24T07:57:57.935Z,7.51
2023-02-24T08:00:49.882Z,7.52
2023-02-24T08:03:23.797Z,7.49
2023-02-24T08:06:12.972Z,7.45
2023-02-24T08:09:16.709Z,7.49
2023-02-24T08:11:54.664Z,7.50
2023-02-24T08:14:34.837Z,7.49
2023-02-24T08:17:06.814Z,7.48
2023-02-24T08:19:42.781Z,7.52
2023-02-24T08:22:19.557Z,7.55
2023-02-24T08:25:06.327Z,7.47
2023-02-24T08:27:40.861Z,7.49
2023-02-24T08:30:40.780Z,7.51
2023-02-24T08:33:20.632Z,7.41
2023-02-24T08:36:01.601Z,7.54
2023-02-24T08:38:42.518Z,7.51
2023-02-24T08:41:20.950Z,7.54
2023-02-24T08:43:53.265Z,7.54
2023-02-24T08:46:37.000Z,7.58
2023-02-24T08:49:10.938Z,7.63
2023-02-24T08:51:49.132Z,7.67
2023-02-24T08:54:32.124Z,7.69
2023-02-24T08:57:09.789Z,7.68
2023-02-24T08:59:49.833Z,7.73
2023-02-24T09:02:27.364Z,7.79
2023-02-24T09:05:12.479Z,7.81
2023-02-24T09:07:54.718Z,7.80
2023-02-24T09:10:28.633Z,7.78
2023-02-24T09:13:01.236Z,7.84
2023-02-24T09:15:41.439Z,7.87
2023-02-24T09:18:14.484Z,7.88
2023-02-24T09:21:16.128Z,7.93
2023-02-24T09:23:48.263Z,7.95
2023-02-24T09:26:20.766Z,7.92
2023-02-24T09:28:58.599Z,7.87
2023-02-24T09:31:40.768Z,7.75
2023-02-24T09:34:18.588Z,7.77
2023-02-24T09:37:03.124Z,7.81
2023-02-24T09:39:59.857Z,7.82
2023-02-24T09:42:46.343Z,7.85
2023-02-24T09:45:33.476Z,7.82
2023-02-24T09:48:24.186Z,7.89
2023-02-24T09:51:06.188Z,7.94
2023-02-24T09:53:49.270Z,7.94
2023-02-24T09:56:37.228Z,7.93
2023-02-24T09:59:50.484Z,7.90
2023-02-24T10:03:19.578Z,7.89
2023-02-24T10:06:13.830Z,7.92
2023-02-24T10:08:59.051Z,7.92
2023-02-24T10:11:34.139Z,7.97
2023-02-24T10:14:19.555Z,8.01
2023-02-24T10:17:13.509Z,8.03
2023-02-24T10:19:45.877Z,8.03
2023-02-24T10:22:40.505Z,8.03
2023-02-24T10:25:24.560Z,8.05
2023-02-24T10:28:23.226Z,8.03
2023-02-24T10:31:10.404Z,8.07
2023-02-24T10:33:45.591Z,8.12
2023-02-24T10:36:45.140Z,8.14
2023-02-24T10:39:25.853Z,8.15
2023-02-24T10:42:17.656Z,8.16
2023-02-24T10:45:01.436Z,8.23
2023-02-24T10:47:34.944Z,8.23
2023-02-24T10:50:12.765Z,8.27
2023-02-24T10:53:11.255Z,8.28
2023-02-24T10:55:47.852Z,8.28
2023-02-24T10:58:28.942Z,8.38
2023-02-24T11:01:40.331Z,8.38
2023-02-24T11:04:33.689Z,8.49
2023-02-24T11:07:25.122Z,8.51
2023-02-24T11:10:25.984Z,8.54
2023-02-24T11:13:19.699Z,8.56
2023-02-24T11:16:13.762Z,8.56
2023-02-24T11:18:51.358Z,8.54
2023-02-24T11:21:27.827Z,8.56
2023-02-24T11:24:02.713Z,8.59
2023-02-24T11:26:37.936Z,8.48
2023-02-24T11:29:46.816Z,8.50
2023-02-24T11:33:12.641Z,8.39
2023-02-24T11:36:07.506Z,8.40
2023-02-24T11:39:02.816Z,8.41
2023-02-24T11:41:50.976Z,8.42
2023-02-24T11:44:53.595Z,8.44
2023-02-24T11:47:53.006Z,8.47
2023-02-24T11:50:58.134Z,8.43
2023-02-24T11:53:38.531Z,8.43
2023-02-24T11:56:36.293Z,8.37
2023-02-24T11:59:28.904Z,8.37
2023-02-24T12:02:16.532Z,8.41
2023-02-24T12:05:09.984Z,8.38
2023-02-24T12:07:50.423Z,8.32
2023-02-24T12:10:46.454Z,8.33
2023-02-24T12:13:36.639Z,8.35
2023-02-24T12:16:17.001Z,8.35
2023-02-24T12:19:15.936Z,8.30
2023-02-24T12:22:07.768Z,8.29
2023-02-24T12:24:51.982Z,8.28
2023-02-24T12:27:46.462Z,8.28
2023-02-24T12:31:14.668Z,8.17
2023-02-24T12:34:08.857Z,8.29
2023-02-24T12:37:21.353Z,8.27
2023-02-24T12:40:16.358Z,8.27
2023-02-24T12:43:03.320Z,8.30
2023-02-24T12:45:47.962Z,8.32
2023-02-24T12:49:04.332Z,8.29
2023-02-24T12:51:39.145Z,8.34
2023-02-24T12:54:29.975Z,8.32
2023-02-24T12:57:17.104Z,8.28
2023-02-24T12:59:50.911Z,8.31
2023-02-24T13:03:06.573Z,8.29
2023-02-24T13:06:37.290Z,8.05
2023-02-24T13:09:24.709Z,8.29
2023-02-24T13:12:15.903Z,8.27
2023-02-24T13:14:49.776Z,8.30
2023-02-24T13:17:27.189Z,8.26
2023-02-24T13:20:12.041Z,8.19
2023-02-24T13:22:44.682Z,8.26
2023-02-24T13:25:30.169Z,8.30
2023-02-24T13:28:07.075Z,8.31
2023-02-24T13:30:45.085Z,8.28
2023-02-24T13:33:23.858Z,8.32
2023-02-24T13:36:24.109Z,8.31
2023-02-24T13:39:44.359Z,8.27
2023-02-24T13:42:24.009Z,8.30
2023-02-24T13:45:10.490Z,8.28
2023-02-24T13:48:09.910Z,8.26
2023-02-24T13:51:09.987Z,8.30
2023-02-24T13:54:09.583Z,8.34
2023-02-24T13:56:49.118Z,8.38
2023-02-24T14:00:14.295Z,8.36
2023-02-24T14:02:46.616Z,8.45
2023-02-24T14:05:33.756Z,8.47
2023-02-24T14:08:06.256Z,8.54
2023-02-24T14:10:45.571Z,8.59
2023-02-24T14:13:29.546Z,8.66
2023-02-24T14:16:12.467Z,8.74
2023-02-24T14:19:04.240Z,8.79
2023-02-24T14:21:36.244Z,8.69
2023-02-24T14:24:14.386Z,8.94
2023-02-24T14:26:55.353Z,8.96
2023-02-24T14:29:43.665Z,8.97
2023-02-24T14:32:25.746Z,8.95
2023-02-24T14:34:57.896Z,9.06
2023-02-24T14:37:32.033Z,9.10
2023-02-24T14:40:06.084Z,9.07
2023-02-24T14:42:50.260Z,9.13
2023-02-24T14:45:26.948Z,9.17
2023-02-24T14:47:58.883Z,9.18
2023-02-24T14:50:34.227Z,9.25
2023-02-24T14:53:15.236Z,9.19
2023-02-24T14:55:52.609Z,9.21
2023-02-24T14:58:51.348Z,9.24
2023-02-24T15:01:38.220Z,9.55
2023-02-24T15:04:30.976Z,9.84
2023-02-24T15:07:08.039Z,9.81
2023-02-24T15:09:45.182Z,9.78
2023-02-24T15:12:47.358Z,9.77
2023-02-24T15:15:39.450Z,9.64
2023-02-24T15:18:24.223Z,9.99
2023-02-24T15:21:06.091Z,9.91
2023-02-24T15:23:38.818Z,10.08
2023-02-24T15:26:27.344Z,9.92
2023-02-24T15:29:11.950Z,9.78
2023-02-24T15:31:48.538Z,9.69
2023-02-24T15:34:28.262Z,9.71
2023-02-24T15:37:13.946Z,9.66
2023-02-24T15:39:45.971Z,9.70
2023-02-24T15:42:33.895Z,9.63
2023-02-24T15:45:25.947Z,9.55
2023-02-24T15:48:01.881Z,9.49
2023-02-24T15:50:34.004Z,9.44
2023-02-24T15:53:08.844Z,9.51
2023-02-24T15:55:44.454Z,9.41
2023-02-24T15:58:20.506Z,9.40
2023-02-24T16:00:52.699Z,9.66
2023-02-24T16:03:24.733Z,10.17
2023-02-24T16:05:56.719Z,10.65
2023-02-24T16:08:29.119Z,10.92
2023-02-24T16:11:01.084Z,11.17
2023-02-24T16:13:33.139Z,11.25
2023-02-24T16:16:07.823Z,11.27
2023-02-24T16:18:40.251Z,10.89
2023-02-24T16:21:12.449Z,10.60
2023-02-24T16:23:44.617Z,10.33
2023-02-24T16:26:19.878Z,10.09
2023-02-24T16:28:56.878Z,9.89
2023-02-24T16:31:29.011Z,9.84
2023-02-24T16:34:01.141Z,10.24
2023-02-24T16:36:34.056Z,10.46
2023-02-24T16:39:06.207Z,10.71
2023-02-24T16:41:38.450Z,10.63
2023-02-24T16:44:10.722Z,10.34
2023-02-24T16:46:45.446Z,10.08
2023-02-24T16:49:20.925Z,9.93
2023-02-24T16:51:53.033Z,9.67
2023-02-24T16:54:29.244Z,9.54
2023-02-24T16:57:01.338Z,9.41
2023-02-24T16:59:33.446Z,9.32
2023-02-24T17:02:06.055Z,9.14
2023-02-24T17:04:38.165Z,9.13
2023-02-24T17:07:11.578Z,9.10
2023-02-24T17:09:43.549Z,9.07
2023-02-24T17:12:21.802Z,9.03
2023-02-24T17:14:54.026Z,9.04
2023-02-24T17:17:26.092Z,9.08
2023-02-24T17:19:58.162Z,9.05
2023-02-24T17:22:30.133Z,9.04
2023-02-24T17:25:02.098Z,9.02
2023-02-24T17:27:34.310Z,9.42
2023-02-24T17:30:07.230Z,9.18
2023-02-24T17:32:39.233Z,9.08
2023-02-24T17:35:11.321Z,9.08
2023-02-24T17:37:43.919Z,9.09
2023-02-24T17:40:16.326Z,9.04
2023-02-24T17:42:48.326Z,8.96
2023-02-24T17:45:21.138Z,8.94
2023-02-24T17:47:53.795Z,8.94
2023-02-24T17:50:26.012Z,8.93
2023-02-24T17:52:57.931Z,8.92
2023-02-24T17:55:29.900Z,8.92
2023-02-24T17:58:01.974Z,8.89
2023-02-24T18:00:33.952Z,8.78
2023-02-24T18:03:06.325Z,8.82
2023-02-24T18:05:38.491Z,8.75
2023-02-24T18:08:11.117Z,8.68
2023-02-24T18:10:44.860Z,8.64
2023-02-24T18:13:16.846Z,8.62
2023-02-24T18:15:48.940Z,8.50
2023-02-24T18:18:21.027Z,8.42
2023-02-24T18:20:53.122Z,8.51
2023-02-24T18:23:25.138Z,8.52
2023-02-24T18:26:00.308Z,8.58
2023-02-24T18:28:33.867Z,8.61
2023-02-24T18:31:19.221Z,8.34
2023-02-24T18:33:52.116Z,8.59
2023-02-24T18:36:24.656Z,8.59
2023-02-24T18:38:58.017Z,8.63
2023-02-24T18:41:30.006Z,8.65
2023-02-24T18:44:02.041Z,8.70
2023-02-24T18:46:34.187Z,8.70
2023-02-24T18:49:08.932Z,8.68
2023-02-24T18:51:40.928Z,8.61
2023-02-24T18:54:12.896Z,8.62
2023-02-24T18:56:44.858Z,8.70
2023-02-24T18:59:16.839Z,8.71
2023-02-24T19:01:51.302Z,8.69
2023-02-24T19:04:24.133Z,8.66
2023-02-24T19:06:56.150Z,8.65
2023-02-24T19:09:28.226Z,8.61
2023-02-24T19:12:01.421Z,8.64
2023-02-24T19:14:33.428Z,8.67
2023-02-24T19:17:05.663Z,8.66
2023-02-24T19:19:39.242Z,8.63
2023-02-24T19:22:11.230Z,8.65
2023-02-24T19:24:43.380Z,8.66
2023-02-24T19:27:15.445Z,8.63
2023-02-24T19:29:47.396Z,8.59
2023-02-24T19:32:19.576Z,8.64
2023-02-24T19:34:51.618Z,8.63
2023-02-24T19:37:23.603Z,8.63
2023-02-24T19:39:55.923Z,8.63
2023-02-24T19:42:28.308Z,8.44
2023-02-24T19:45:00.316Z,8.59
2023-02-24T19:47:32.246Z,8.59
2023-02-24T19:50:04.499Z,8.49
2023-02-24T19:52:36.400Z,8.53
2023-02-24T19:55:11.629Z,8.55
2023-02-24T19:57:43.592Z,8.47
2023-02-24T20:00:16.509Z,8.57
2023-02-24T20:02:48.424Z,8.53
2023-02-24T20:05:20.523Z,8.54
2023-02-24T20:07:52.465Z,8.50
2023-02-24T20:10:24.462Z,8.47
2023-02-24T20:12:58.087Z,8.45
2023-02-24T20:15:30.117Z,8.40
2023-02-24T20:18:04.776Z,8.41
2023-02-24T20:20:36.986Z,8.40
2023-02-24T20:23:08.972Z,8.37
2023-02-24T20:25:49.399Z,8.33
2023-02-24T20:28:21.879Z,8.26
2023-02-24T20:30:56.129Z,8.27
2023-02-24T20:33:28.133Z,8.27
2023-02-24T20:36:00.088Z,8.21
2023-02-24T20:38:32.673Z,8.18
2023-02-24T20:41:05.769Z,8.06
2023-02-24T20:43:38.358Z,8.10
2023-02-24T20:46:26.662Z,8.05
2023-02-24T20:49:05.527Z,8.05
2023-02-24T20:51:38.502Z,8.03
2023-02-24T20:54:13.504Z,8.06
2023-02-24T20:56:46.646Z,8.05
2023-02-24T20:59:22.250Z,7.98
2023-02-24T21:01:54.708Z,8.03
2023-02-24T21:04:26.868Z,8.07
2023-02-24T21:06:59.053Z,8.08
2023-02-24T21:09:37.202Z,8.08
2023-02-24T21:12:09.643Z,8.12
2023-02-24T21:14:43.544Z,8.10
2023-02-24T21:17:15.539Z,8.08
2023-02-24T21:19:47.474Z,8.08
2023-02-24T21:22:19.496Z,8.09
2023-02-24T21:24:51.471Z,8.06
2023-02-24T21:27:24.142Z,7.99
2023-02-24T21:29:56.122Z,8.09
2023-02-24T21:32:28.171Z,8.13
2023-02-24T21:35:00.179Z,8.08
2023-02-24T21:37:34.231Z,8.07
2023-02-24T21:40:17.577Z,8.07
2023-02-24T21:42:49.530Z,8.06
2023-02-24T21:45:21.495Z,8.05
2023-02-24T21:47:54.259Z,8.01
2023-02-24T21:50:26.302Z,7.95
2023-02-24T21:52:58.224Z,8.01
2023-02-24T21:55:30.222Z,8.02
2023-02-24T21:58:02.193Z,8.02
2023-02-24T22:00:34.262Z,8.06
2023-02-24T22:03:07.806Z,8.08
2023-02-24T22:05:39.812Z,8.10
2023-02-24T22:08:11.780Z,8.07
2023-02-24T22:10:43.718Z,8.04
2023-02-24T22:13:15.635Z,7.99
2023-02-24T22:15:47.641Z,7.98
2023-02-24T22:18:21.174Z,7.92
2023-02-24T22:20:53.264Z,7.95
2023-02-24T22:23:25.212Z,7.94
2023-02-24T22:25:57.195Z,8.23
2023-02-24T22:28:29.154Z,7.99
2023-02-24T22:31:02.605Z,7.93
2023-02-24T22:33:37.779Z,7.91
2023-02-24T22:36:17.551Z,7.92
2023-02-24T22:38:49.509Z,7.93
2023-02-24T22:41:28.672Z,7.96
2023-02-24T22:44:03.633Z,7.97
2023-02-24T22:46:38.695Z,7.99
2023-02-24T22:49:11.187Z,8.01
2023-02-24T22:51:43.346Z,8.00
2023-02-24T22:54:15.453Z,8.04
2023-02-24T22:56:47.749Z,7.80
2023-02-24T22:59:19.722Z,8.01
2023-02-24T23:01:51.660Z,7.79
2023-02-24T23:04:24.152Z,8.03
2023-02-24T23:06:57.262Z,8.01
2023-02-24T23:09:29.569Z,8.01
2023-02-24T23:12:02.157Z,7.98
2023-02-24T23:14:34.145Z,7.96
2023-02-24T23:17:06.256Z,7.94
2023-02-24T23:19:38.203Z,7.90
2023-02-24T23:22:10.119Z,7.87
2023-02-24T23:24:42.065Z,7.85
2023-02-24T23:27:14.106Z,7.86
2023-02-24T23:29:46.133Z,7.77
2023-02-24T23:32:18.152Z,7.77
2023-02-24T23:34:50.192Z,7.78
2023-02-24T23:37:22.177Z,7.74
2023-02-24T23:39:54.635Z,7.70
2023-02-24T23:42:26.601Z,8.07
2023-02-24T23:44:58.991Z,7.77
2023-02-24T23:47:31.192Z,7.70
2023-02-24T23:50:04.421Z,7.53
2023-02-24T23:52:36.411Z,7.63
2023-02-24T23:55:09.177Z,7.66
2023-02-24T23:57:41.140Z,7.63
